Time;durP1;ratioP1;P1;durP2;ratioP2;P2;SDS_P1;SDS_P2;PMS_P1;PMS_P2;Temp;Humidity;BMP_temperature;BMP_pressure;BME280_temperature;BME280_humidity;BME280_pressure;Samples;Min_cycle;Max_cycle;Signal;HPM_P1;HPM_P2
2022/10/08 00:00:31;;;;;;;4.20;3.90;;;;;;;19.92;57.49;97152.00;10535730;28;20403;-53
2022/10/08 00:06:11;;;;;;;4.18;3.67;;;;;;;19.93;57.45;97141.97;10500492;28;20049;-52
2022/10/08 00:11:38;;;;;;;4.32;3.92;;;;;;;19.91;57.46;97134.16;10504334;28;20051;-54
2022/10/08 00:16:58;;;;;;;4.20;3.80;;;;;;;19.93;57.35;97136.56;10504025;28;20110;-52
2022/10/08 00:22:17;;;;;;;3.97;3.67;;;;;;;19.91;57.37;97136.88;10525724;28;20045;-53
2022/10/08 00:27:36;;;;;;;4.10;3.70;;;;;;;19.90;57.43;97135.31;10504385;28;20056;-52
2022/10/08 00:32:55;;;;;;;4.03;3.65;;;;;;;19.90;57.59;97121.78;10504434;28;20044;-53
2022/10/08 00:38:14;;;;;;;3.83;3.45;;;;;;;19.91;57.47;97111.75;10506239;28;20075;-53
2022/10/08 00:43:46;;;;;;;4.28;3.50;;;;;;;19.89;57.49;97109.38;10509398;28;20075;-53
2022/10/08 00:49:12;;;;;;;4.25;3.88;;;;;;;19.89;57.43;97103.97;10519425;28;20048;-53
2022/10/08 00:54:31;;;;;;;4.10;3.80;;;;;;;19.88;57.46;97098.88;10509307;28;20113;-52
2022/10/08 00:59:50;;;;;;;3.88;3.58;;;;;;;19.86;57.49;97085.69;10499806;28;20057;-53
2022/10/08 01:05:11;;;;;;;4.43;3.90;;;;;;;19.87;57.40;97097.28;10526049;28;20050;-53
2022/10/08 01:10:40;;;;;;;3.92;3.63;;;;;;;19.85;57.42;97081.38;10540599;28;20047;-53
2022/10/08 01:16:31;;;;;;;4.32;3.92;;;;;;;19.85;57.42;97075.19;10512070;28;20048;-52
2022/10/08 01:22:08;;;;;;;3.65;3.35;;;;;;;19.86;57.45;97069.47;10489787;28;20059;-53
2022/10/08 01:27:35;;;;;;;3.75;3.45;;;;;;;19.85;57.48;97075.97;10523713;28;20080;-53
2022/10/08 01:33:00;;;;;;;3.50;3.20;;;;;;;19.84;57.51;97069.00;10502249;28;20040;-53
2022/10/08 01:38:21;;;;;;;3.50;3.20;;;;;;;19.83;57.47;97055.78;10536012;28;20041;-52
2022/10/08 01:43:45;;;;;;;3.80;3.50;;;;;;;19.84;57.48;97060.09;10498092;28;20443;-52
2022/10/08 01:49:09;;;;;;;3.50;3.20;;;;;;;19.82;57.41;97060.41;10510708;28;20063;-53
2022/10/08 01:54:30;;;;;;;3.25;2.90;;;;;;;19.81;57.31;97058.78;10502814;28;20453;-53
2022/10/08 01:59:53;;;;;;;3.65;3.35;;;;;;;19.80;57.47;97062.63;10494295;28;20049;-53
2022/10/08 02:05:13;;;;;;;3.65;3.35;;;;;;;19.81;57.50;97064.22;10509527;28;20121;-53
2022/10/08 02:10:32;;;;;;;3.70;3.40;;;;;;;19.79;57.49;97060.25;10514533;28;20101;-52
2022/10/08 02:16:10;;;;;;;3.85;3.55;;;;;;;19.78;57.43;97056.75;10513433;28;20075;-52
2022/10/08 02:21:30;;;;;;;3.33;3.03;;;;;;;19.79;57.56;97055.63;10528671;28;20119;-53
2022/10/08 02:26:53;;;;;;;3.17;2.88;;;;;;;19.78;57.34;97045.94;10520700;28;20047;-53
2022/10/08 02:32:37;;;;;;;3.20;3.00;;;;;;;19.77;57.45;97043.53;10520422;28;20102;-53
2022/10/08 02:38:10;;;;;;;3.00;2.80;;;;;;;19.75;57.51;97047.34;10532049;28;20036;-53
2022/10/08 02:43:32;;;;;;;3.30;3.05;;;;;;;19.75;57.47;97049.25;10510764;28;20053;-53
2022/10/08 02:48:58;;;;;;;3.42;3.13;;;;;;;19.74;57.51;97053.88;10530490;28;20056;-53
2022/10/08 02:54:19;;;;;;;3.30;3.00;;;;;;;19.73;57.49;97057.69;10502974;28;20090;-53
2022/10/08 02:59:39;;;;;;;3.30;3.00;;;;;;;19.73;57.52;97056.91;10498139;28;20044;-52
2022/10/08 03:05:02;;;;;;;2.90;2.70;;;;;;;19.73;57.58;97062.31;10511969;28;20106;-52
2022/10/08 03:10:24;;;;;;;3.45;3.15;;;;;;;19.72;57.55;97069.63;10498132;28;20048;-52
2022/10/08 03:15:44;;;;;;;3.38;3.08;;;;;;;19.70;57.61;97065.63;10524300;28;20045;-53
2022/10/08 03:21:06;;;;;;;3.47;3.17;;;;;;;19.71;57.49;97064.50;10501567;28;20060;-53
2022/10/08 03:26:26;;;;;;;4.05;3.10;;;;;;;19.69;57.56;97067.53;10500764;28;20053;-53
2022/10/08 03:31:49;;;;;;;2.92;2.72;;;;;;;19.69;57.53;97072.13;10517490;28;20484;-53
2022/10/08 03:37:08;;;;;;;2.97;2.78;;;;;;;19.68;57.50;97070.53;10512873;28;20051;-52
2022/10/08 03:42:28;;;;;;;3.42;3.13;;;;;;;19.68;57.62;97073.25;10516801;28;20139;-53
2022/10/08 03:47:51;;;;;;;3.47;3.17;;;;;;;19.68;57.71;97075.94;10517382;28;20417;-53
2022/10/08 03:53:10;;;;;;;3.10;2.90;;;;;;;19.66;57.71;97070.88;10510957;28;20057;-53
2022/10/08 03:58:30;;;;;;;2.88;2.60;;;;;;;19.66;57.63;97067.34;10508128;28;20052;-52
2022/10/08 04:03:49;;;;;;;3.08;2.80;;;;;;;19.66;57.69;97070.06;10504912;28;20049;-53
2022/10/08 04:09:09;;;;;;;15.45;3.15;;;;;;;19.64;57.62;97065.00;10520578;28;20052;-52
2022/10/08 04:14:29;;;;;;;3.03;2.83;;;;;;;19.64;57.66;97053.38;10529027;28;20056;-53
2022/10/08 04:19:48;;;;;;;2.65;2.45;;;;;;;19.63;57.68;97049.09;10515357;28;20056;-53
2022/10/08 04:25:07;;;;;;;2.80;2.60;;;;;;;19.62;57.66;97056.41;10521868;28;20048;-54
2022/10/08 04:30:28;;;;;;;2.75;2.55;;;;;;;19.62;57.75;97055.59;10516536;28;20177;-53
2022/10/08 04:35:48;;;;;;;2.80;2.60;;;;;;;19.62;57.70;97055.59;10520334;28;20102;-53
2022/10/08 04:41:16;;;;;;;2.85;2.65;;;;;;;19.61;57.65;97062.13;10542366;28;20466;-53
2022/10/08 04:46:36;;;;;;;2.80;2.60;;;;;;;19.60;57.69;97053.22;10515149;28;20044;-53
2022/10/08 04:51:55;;;;;;;3.00;2.80;;;;;;;19.59;57.78;97059.75;10507147;28;20037;-52
2022/10/08 04:57:15;;;;;;;3.00;2.80;;;;;;;19.59;57.71;97073.25;10512338;28;20051;-52
2022/10/08 05:02:34;;;;;;;3.15;2.95;;;;;;;19.58;57.76;97070.84;10519624;28;20510;-52
2022/10/08 05:07:55;;;;;;;3.10;2.80;;;;;;;19.58;57.63;97062.75;10501793;28;20062;-53
2022/10/08 05:13:15;;;;;;;2.80;2.60;;;;;;;19.57;57.77;97061.97;10520255;28;20056;-53
2022/10/08 05:18:35;;;;;;;2.67;2.45;;;;;;;19.57;57.82;97059.25;10523779;28;20059;-52
2022/10/08 05:24:01;;;;;;;2.70;2.50;;;;;;;19.55;57.83;97054.16;10500043;28;20094;-52
2022/10/08 05:29:20;;;;;;;2.67;2.47;;;;;;;19.55;57.80;97062.28;10511356;28;20043;-52
2022/10/08 05:34:39;;;;;;;2.50;2.30;;;;;;;19.53;57.72;97061.78;10524192;28;20044;-53
2022/10/08 05:39:59;;;;;;;2.88;2.47;;;;;;;19.54;57.75;97068.81;10512727;28;20087;-53
2022/10/08 05:45:19;;;;;;;2.70;2.50;;;;;;;19.53;57.85;97072.59;10524520;28;20040;-53
2022/10/08 05:50:38;;;;;;;2.45;2.25;;;;;;;19.53;57.73;97072.59;10527450;28;20061;-53
2022/10/08 05:55:59;;;;;;;2.58;2.38;;;;;;;19.53;57.81;97077.22;10529063;28;20120;-52
2022/10/08 06:01:22;;;;;;;2.80;2.60;;;;;;;19.52;57.76;97071.03;10520553;28;20408;-53
2022/10/08 06:06:42;;;;;;;2.58;2.38;;;;;;;19.52;57.74;97078.31;10526296;28;20052;-52
2022/10/08 06:12:01;;;;;;;7.07;6.47;;;;;;;19.46;54.87;97072.28;10516555;28;20055;-52
2022/10/08 06:17:21;;;;;;;9.32;8.43;;;;;;;19.25;53.03;97080.22;10552852;28;20040;-53
2022/10/08 06:22:40;;;;;;;9.63;8.65;;;;;;;19.08;52.54;97086.34;10516911;28;20052;-53
2022/10/08 06:28:00;;;;;;;9.35;8.20;;;;;;;18.94;52.36;97089.19;10520626;28;20056;-52
2022/10/08 06:33:19;;;;;;;9.77;8.50;;;;;;;18.88;52.50;97100.44;10516052;28;20048;-52
2022/10/08 06:38:39;;;;;;;8.48;7.68;;;;;;;18.81;52.48;97103.56;10499626;28;20080;-52
2022/10/08 06:43:59;;;;;;;10.05;7.97;;;;;;;18.78;52.73;97102.28;10500502;28;20504;-52
2022/10/08 06:49:21;;;;;;;8.57;7.40;;;;;;;18.76;52.90;97104.50;10503041;28;20048;-52
2022/10/08 06:54:40;;;;;;;8.10;7.13;;;;;;;18.78;52.99;97118.47;10502948;28;20049;-52
2022/10/08 07:00:00;;;;;;;9.02;7.32;;;;;;;18.78;53.06;97114.97;10509503;28;20059;-52
2022/10/08 07:05:19;;;;;;;8.63;7.53;;;;;;;18.78;53.05;97115.78;10505593;28;20056;-53
2022/10/08 07:10:39;;;;;;;9.40;7.28;;;;;;;18.77;53.30;97119.56;10529076;28;20500;-53
2022/10/08 07:16:19;;;;;;;7.45;6.70;;;;;;;18.80;53.28;97128.16;10525396;28;20048;-53
2022/10/08 07:21:39;;;;;;;8.68;6.88;;;;;;;18.83;53.22;97132.97;10516023;28;20064;-52
2022/10/08 07:26:59;;;;;;;8.68;6.97;;;;;;;18.83;53.29;97119.47;10500039;28;20049;-53
2022/10/08 07:32:19;;;;;;;7.65;6.88;;;;;;;18.84;53.21;97119.16;10522499;28;20108;-52
2022/10/08 07:37:41;;;;;;;7.78;5.75;;;;;;;18.94;54.09;97126.97;10519626;28;20047;-54
2022/10/08 07:43:03;;;;;;;9.43;6.28;;;;;;;19.05;54.37;97121.28;10510048;28;20400;-54
2022/10/08 07:48:23;;;;;;;8.13;5.30;;;;;;;19.12;54.61;97135.13;10522818;28;20043;-55
2022/10/08 07:53:43;;;;;;;7.47;6.00;;;;;;;19.20;54.70;97136.28;10544576;28;20055;-54
2022/10/08 07:59:04;;;;;;;7.53;5.47;;;;;;;19.25;54.84;97136.13;10544637;28;20044;-55
2022/10/08 08:04:24;;;;;;;6.85;5.40;;;;;;;19.29;54.95;97126.31;10527492;28;20388;-54
2022/10/08 08:09:44;;;;;;;7.60;5.32;;;;;;;19.33;55.05;97128.06;10502499;28;20052;-54
2022/10/08 08:15:04;;;;;;;9.07;5.55;;;;;;;19.37;55.22;97125.53;10530280;28;20040;-54
2022/10/08 08:20:23;;;;;;;7.13;6.05;;;;;;;19.40;55.44;97135.69;10533061;28;20048;-54
2022/10/08 08:25:43;;;;;;;8.00;5.32;;;;;;;19.43;55.77;97129.66;10540618;28;20052;-53
2022/10/08 08:31:13;;;;;;;6.68;4.75;;;;;;;19.47;55.99;97130.63;10507811;28;20435;-54
2022/10/08 08:36:36;;;;;;;7.00;5.03;;;;;;;19.50;56.19;97132.72;10523878;28;20101;-54
2022/10/08 08:42:01;;;;;;;7.32;5.50;;;;;;;19.55;56.21;97143.34;10504152;28;20123;-54
2022/10/08 08:47:40;;;;;;;6.32;4.75;;;;;;;19.57;56.42;97129.53;10556650;28;20040;-54
2022/10/08 08:52:59;;;;;;;7.10;5.00;;;;;;;19.60;56.25;97137.00;10542891;28;20052;-54
2022/10/08 08:58:22;;;;;;;6.50;4.88;;;;;;;19.64;56.32;97140.66;10517111;28;20071;-54
2022/10/08 09:03:44;;;;;;;6.38;4.57;;;;;;;19.66;56.33;97143.03;10536707;28;20120;-54
2022/10/08 09:09:19;;;;;;;5.65;5.00;;;;;;;19.69;56.33;97153.22;10509570;28;20106;-54
2022/10/08 09:14:42;;;;;;;5.70;4.28;;;;;;;19.72;56.29;97160.75;10540747;28;20502;-54
2022/10/08 09:20:02;;;;;;;5.70;4.60;;;;;;;19.74;56.30;97153.91;10501711;28;20076;-54
2022/10/08 09:25:30;;;;;;;5.25;4.38;;;;;;;19.77;56.33;97152.47;10538936;28;20136;-54
2022/10/08 09:30:49;;;;;;;5.15;4.63;;;;;;;19.79;56.22;97157.56;10519235;28;20057;-54
2022/10/08 09:36:08;;;;;;;4.65;4.25;;;;;;;19.82;56.14;97163.13;10524043;28;20056;-54
2022/10/08 09:41:29;;;;;;;4.78;4.05;;;;;;;19.85;56.18;97159.78;10517437;28;20106;-54
2022/10/08 09:47:03;;;;;;;5.10;4.60;;;;;;;19.87;56.28;97152.16;10502259;28;20131;-54
2022/10/08 09:52:25;;;;;;;5.22;4.20;;;;;;;19.89;56.30;97155.31;10501438;28;20420;-54
2022/10/08 09:57:48;;;;;;;4.38;3.97;;;;;;;19.91;56.35;97165.84;10546009;28;20040;-54
2022/10/08 10:03:15;;;;;;;4.68;4.15;;;;;;;19.93;56.32;97158.19;10526909;28;20407;-55
2022/10/08 10:08:50;;;;;;;4.60;4.18;;;;;;;19.94;56.35;97170.63;10509923;28;20045;-54
2022/10/08 10:14:22;;;;;;;5.47;4.47;;;;;;;19.96;56.24;97171.09;10508717;28;20055;-55
2022/10/08 10:19:54;;;;;;;4.65;4.20;;;;;;;19.96;56.29;97165.69;10485936;28;20076;-54
2022/10/08 10:25:27;;;;;;;5.25;4.45;;;;;;;19.98;56.35;97162.66;10512891;28;20514;-55
2022/10/08 10:31:02;;;;;;;4.95;3.90;;;;;;;19.99;56.34;97156.94;10519793;28;20497;-54
2022/10/08 10:36:25;;;;;;;5.57;4.38;;;;;;;20.00;56.31;97161.22;10513003;28;20044;-54
2022/10/08 10:41:49;;;;;;;5.32;4.00;;;;;;;20.01;56.54;97154.69;10515814;28;20508;-54
2022/10/08 10:47:09;;;;;;;8.68;4.43;;;;;;;20.02;56.77;97156.31;10528955;28;20044;-54
2022/10/08 10:53:07;;;;;;;4.22;3.83;;;;;;;20.04;57.00;97137.06;10499447;28;20052;-54
2022/10/08 10:59:05;;;;;;;6.60;4.30;;;;;;;20.05;57.10;97127.81;10459320;28;20059;-55
2022/10/08 11:04:31;;;;;;;32.60;11.23;;;;;;;20.07;58.16;97137.22;10509200;28;20511;-55
2022/10/08 11:10:05;;;;;;;23.92;8.25;;;;;;;20.09;59.01;97131.47;10504695;28;20097;-54
2022/10/08 11:15:36;;;;;;;17.30;8.57;;;;;;;20.10;59.60;97123.03;10525598;28;20048;-54
2022/10/08 11:21:11;;;;;;;21.17;10.50;;;;;;;20.13;60.61;97135.13;10499086;28;20383;-54
2022/10/08 11:26:52;;;;;;;16.35;8.52;;;;;;;20.16;61.83;97126.38;10522996;28;20480;-54
2022/10/08 11:32:14;;;;;;;17.08;8.18;;;;;;;20.18;61.96;97109.84;10493789;28;20055;-54
2022/10/08 11:37:38;;;;;;;38.33;26.80;;;;;;;20.19;62.19;97123.03;10504116;28;20047;-55
2022/10/08 11:43:09;;;;;;;51.95;32.20;;;;;;;20.20;62.96;97124.63;10544949;28;20128;-54
2022/10/08 11:48:32;;;;;;;39.05;24.33;;;;;;;20.21;63.79;97120.00;10515613;28;20491;-54
2022/10/08 11:54:08;;;;;;;33.45;20.15;;;;;;;20.22;63.97;97119.69;10511008;28;20047;-54
2022/10/08 11:59:34;;;;;;;26.42;19.10;;;;;;;20.23;63.75;97126.69;10516326;28;20065;-54
2022/10/08 12:04:57;;;;;;;29.42;18.50;;;;;;;20.22;63.42;97122.38;10507597;28;20055;-55
2022/10/08 12:10:16;;;;;;;25.25;16.02;;;;;;;20.22;63.32;97119.69;10518616;28;20059;-54
2022/10/08 12:15:37;;;;;;;23.38;15.75;;;;;;;20.22;62.96;97113.50;10514718;28;20053;-54
2022/10/08 12:21:15;;;;;;;19.67;13.95;;;;;;;20.22;62.78;97118.91;10520309;28;20048;-54
2022/10/08 12:26:35;;;;;;;19.47;12.97;;;;;;;20.22;62.44;97116.19;10523511;28;20101;-54
2022/10/08 12:32:01;;;;;;;17.83;12.50;;;;;;;20.22;62.23;97116.97;10508070;28;20056;-54
2022/10/08 12:37:38;;;;;;;15.57;11.20;;;;;;;20.22;62.05;97125.09;10520361;28;20052;-55
2022/10/08 12:43:24;;;;;;;14.80;10.65;;;;;;;20.21;61.85;97117.28;10502847;28;20053;-54
2022/10/08 12:48:51;;;;;;;13.85;9.75;;;;;;;20.22;61.66;97108.06;10504308;28;20048;-55
2022/10/08 12:54:20;;;;;;;11.38;9.00;;;;;;;20.23;61.49;97106.94;10526970;28;20060;-54
2022/10/08 12:59:40;;;;;;;11.17;7.93;;;;;;;20.22;61.13;97108.88;10513992;28;20056;-54
2022/10/08 13:04:59;;;;;;;10.82;7.38;;;;;;;20.22;60.98;97105.38;10502578;28;20055;-54
2022/10/08 13:10:21;;;;;;;10.60;7.10;;;;;;;20.21;60.63;97110.00;10548433;28;20048;-54
2022/10/08 13:15:41;;;;;;;13.25;7.40;;;;;;;20.21;60.55;97112.69;10507910;28;20048;-54
2022/10/08 13:21:06;;;;;;;10.10;6.63;;;;;;;20.21;60.18;97101.06;10509284;28;20048;-55
2022/10/08 13:26:48;;;;;;;9.77;6.22;;;;;;;20.20;60.24;97102.97;10526357;28;20407;-54
2022/10/08 13:32:13;;;;;;;8.40;5.68;;;;;;;20.20;60.09;97097.56;10526922;28;20043;-54
2022/10/08 13:37:37;;;;;;;7.97;5.40;;;;;;;20.21;60.09;97101.88;10520007;28;20049;-55
2022/10/08 13:42:58;;;;;;;8.75;5.28;;;;;;;20.20;60.00;97100.28;10509008;28;20070;-55
2022/10/08 13:48:17;;;;;;;7.55;5.00;;;;;;;20.20;60.00;97105.69;10521112;28;20047;-55
2022/10/08 13:53:40;;;;;;;7.30;5.05;;;;;;;20.19;59.90;97101.41;10504527;28;20445;-54
2022/10/08 13:59:00;;;;;;;7.97;5.05;;;;;;;20.20;59.80;97108.38;10504813;28;20056;-54
2022/10/08 14:04:19;;;;;;;7.90;5.43;;;;;;;20.19;59.81;97101.41;10511211;28;20056;-54
2022/10/08 14:09:38;;;;;;;6.68;4.88;;;;;;;20.18;59.64;97102.50;10521995;28;20041;-54
2022/10/08 14:14:58;;;;;;;6.07;4.45;;;;;;;20.19;59.70;97111.41;10497384;28;20048;-55
2022/10/08 14:20:18;;;;;;;6.47;4.55;;;;;;;20.18;59.55;97101.72;10500399;28;20076;-55
2022/10/08 14:25:37;;;;;;;5.72;4.07;;;;;;;20.17;59.50;97106.34;10502820;28;20053;-54
2022/10/08 14:30:57;;;;;;;5.55;3.90;;;;;;;20.18;59.54;97112.53;10523867;28;20400;-54
2022/10/08 14:36:19;;;;;;;5.95;4.00;;;;;;;20.19;59.35;97114.13;10514380;28;20048;-55
2022/10/08 14:41:39;;;;;;;6.38;4.10;;;;;;;20.17;59.43;97106.34;10514109;28;20067;-55
2022/10/08 14:46:58;;;;;;;5.72;4.10;;;;;;;20.15;59.34;97106.66;10508066;28;20408;-54
2022/10/08 14:52:19;;;;;;;6.60;4.13;;;;;;;20.17;59.31;97110.94;10507865;28;20420;-55
2022/10/08 14:57:39;;;;;;;6.45;4.28;;;;;;;20.14;59.32;97099.66;10509383;28;20052;-54
2022/10/08 15:02:59;;;;;;;5.72;4.28;;;;;;;20.14;59.27;97101.56;10498980;28;20416;-54
2022/10/08 15:08:19;;;;;;;6.15;3.80;;;;;;;20.14;59.26;97098.84;10512968;28;20113;-55
2022/10/08 15:13:39;;;;;;;5.00;4.00;;;;;;;20.14;59.20;97104.25;10537207;28;20052;-54
2022/10/08 15:18:58;;;;;;;5.35;3.80;;;;;;;20.14;59.27;97112.38;10518292;28;20105;-54
2022/10/08 15:24:17;;;;;;;6.18;3.35;;;;;;;20.12;59.22;97122.72;10508457;28;20048;-54
2022/10/08 15:29:36;;;;;;;5.43;3.90;;;;;;;20.11;59.14;97126.53;10505961;28;20044;-54
2022/10/08 15:34:56;;;;;;;4.72;3.58;;;;;;;20.11;59.20;97124.66;10519526;28;20052;-54
2022/10/08 15:40:15;;;;;;;4.30;3.63;;;;;;;20.10;59.17;97131.16;10514606;28;20060;-54
2022/10/08 15:45:42;;;;;;;6.20;3.88;;;;;;;20.10;59.15;97133.84;10527843;28;20067;-54
2022/10/08 15:51:01;;;;;;;5.05;3.40;;;;;;;20.10;59.15;97138.47;10501395;28;20040;-54
2022/10/08 15:56:20;;;;;;;4.07;3.28;;;;;;;20.11;59.09;97148.16;10513733;28;20400;-54
2022/10/08 16:01:40;;;;;;;4.80;3.47;;;;;;;20.09;59.14;97151.22;10497565;28;20131;-54
2022/10/08 16:06:59;;;;;;;4.22;3.20;;;;;;;20.09;59.09;97158.50;10529477;28;20106;-54
2022/10/08 16:12:19;;;;;;;3.97;3.53;;;;;;;20.08;58.98;97162.34;10529301;28;20408;-54
2022/10/08 16:17:38;;;;;;;3.90;3.38;;;;;;;20.08;58.87;97159.66;10504857;28;20055;-54
2022/10/08 16:22:58;;;;;;;4.65;3.40;;;;;;;20.07;58.88;97168.84;10503678;28;20113;-54
2022/10/08 16:28:17;;;;;;;3.70;3.17;;;;;;;-146.19;46.57;65364.44;10524969;28;20064;-54
2022/10/08 16:33:38;;;;;;;4.72;3.13;;;;;;;20.07;59.42;97185.09;10523969;28;20063;-54
2022/10/08 16:38:58;;;;;;;5.95;3.08;;;;;;;20.08;59.61;97192.09;10517446;28;20048;-54
2022/10/08 16:44:19;;;;;;;4.68;3.15;;;;;;;20.08;59.72;97208.31;10523649;28;20063;-53
2022/10/08 16:49:39;;;;;;;5.07;3.97;;;;;;;20.09;59.63;97220.72;10520614;28;20036;-54
2022/10/08 16:54:58;;;;;;;6.60;4.00;;;;;;;20.06;59.22;97215.97;10519781;28;20424;-54
2022/10/08 17:00:18;;;;;;;4.70;4.20;;;;;;;20.05;59.10;97236.00;10515240;28;20428;-54
2022/10/08 17:05:40;;;;;;;7.00;4.90;;;;;;;20.05;58.88;97241.41;10528284;28;20055;-53
2022/10/08 17:11:08;;;;;;;5.85;4.47;;;;;;;20.03;58.58;97247.16;10523107;28;20546;-54
2022/10/08 17:16:29;;;;;;;5.57;4.27;;;;;;;20.02;58.51;97252.88;10502596;28;20083;-54
2022/10/08 17:21:49;;;;;;;4.78;4.28;;;;;;;20.01;58.53;97264.78;10502215;28;20081;-54
2022/10/08 17:27:08;;;;;;;4.95;4.45;;;;;;;20.02;58.64;97274.50;10523780;28;20054;-54
2022/10/08 17:32:28;;;;;;;4.20;3.80;;;;;;;20.00;58.74;97274.03;10507058;28;20114;-53
2022/10/08 17:37:47;;;;;;;5.32;4.30;;;;;;;20.00;58.65;97287.53;10510544;28;20045;-54
2022/10/08 17:43:07;;;;;;;5.70;4.18;;;;;;;19.99;58.79;97288.66;10500987;28;20060;-54
2022/10/08 17:48:27;;;;;;;4.30;3.85;;;;;;;19.99;58.86;97302.16;10526287;28;20037;-54
2022/10/08 17:53:52;;;;;;;4.55;4.00;;;;;;;19.98;58.90;97304.09;10523899;28;20044;-54
2022/10/08 17:59:16;;;;;;;5.10;4.22;;;;;;;19.97;58.74;97301.69;10508989;28;20048;-54
2022/10/08 18:04:36;;;;;;;4.70;3.92;;;;;;;19.96;58.79;97314.41;10509189;28;20097;-54
2022/10/08 18:09:56;;;;;;;5.75;4.00;;;;;;;19.95;58.79;97327.16;10510344;28;20049;-54
2022/10/08 18:15:16;;;;;;;4.30;3.90;;;;;;;19.95;58.76;97329.84;10533993;28;20044;-54
2022/10/08 18:20:35;;;;;;;4.38;3.97;;;;;;;19.93;58.78;97334.78;10507922;28;20048;-54
2022/10/08 18:26:05;;;;;;;3.90;3.60;;;;;;;19.93;58.83;97344.78;10508875;28;20106;-54
2022/10/08 18:31:27;;;;;;;3.78;3.42;;;;;;;19.92;58.80;97360.22;10530074;28;20144;-55
2022/10/08 18:36:46;;;;;;;4.65;3.78;;;;;;;19.92;58.90;97381.06;10527234;28;20036;-54
2022/10/08 18:42:06;;;;;;;4.47;3.90;;;;;;;19.92;58.86;97400.78;10521551;28;20052;-54
2022/10/08 18:47:25;;;;;;;3.75;3.45;;;;;;;19.91;58.90;97414.59;10522157;28;20048;-54
2022/10/08 18:52:44;;;;;;;5.13;3.47;;;;;;;19.90;58.95;97419.22;10520852;28;20392;-52
2022/10/08 18:58:04;;;;;;;4.93;3.53;;;;;;;19.89;58.92;97431.13;10510760;28;20048;-54
2022/10/08 19:03:24;;;;;;;4.00;3.60;;;;;;;19.90;58.84;97440.84;10513060;28;20074;-54
2022/10/08 19:08:44;;;;;;;4.65;3.40;;;;;;;19.89;58.80;97449.25;10534521;28;20052;-54
2022/10/08 19:14:05;;;;;;;4.00;3.53;;;;;;;19.88;58.66;97453.88;10521194;28;20459;-54
2022/10/08 19:19:30;;;;;;;4.45;3.47;;;;;;;19.88;58.78;97467.41;10482851;28;20052;-54
2022/10/08 19:24:50;;;;;;;3.42;3.13;;;;;;;19.87;58.86;97471.19;10500480;28;20110;-54
2022/10/08 19:30:10;;;;;;;4.20;3.80;;;;;;;19.87;58.81;97484.72;10511142;28;20086;-54
2022/10/08 19:35:30;;;;;;;3.58;3.25;;;;;;;19.87;58.79;97487.44;10526133;28;20053;-54
2022/10/08 19:40:49;;;;;;;3.45;3.08;;;;;;;19.86;58.90;97496.66;10514545;28;20125;-54
2022/10/08 19:46:09;;;;;;;4.28;3.13;;;;;;;19.84;58.81;97504.28;10500932;28;20517;-53
2022/10/08 19:51:29;;;;;;;3.65;3.30;;;;;;;19.85;58.77;97507.78;10514353;28;20070;-53
2022/10/08 19:56:49;;;;;;;3.40;3.10;;;;;;;19.84;58.83;97512.41;10537122;28;20131;-54
2022/10/08 20:02:09;;;;;;;3.70;3.25;;;;;;;19.83;58.83;97524.31;10530605;28;20491;-54
2022/10/08 20:07:31;;;;;;;4.07;3.17;;;;;;;19.82;58.77;97528.13;10527623;28;20044;-53
2022/10/08 20:12:50;;;;;;;3.17;2.88;;;;;;;19.83;58.83;97531.63;10513903;28;20059;-53
2022/10/08 20:18:10;;;;;;;3.15;2.78;;;;;;;19.82;58.67;97524.63;10518644;28;20099;-53
2022/10/08 20:23:29;;;;;;;3.22;2.92;;;;;;;19.80;58.79;97526.81;10542231;28;20051;-54
2022/10/08 20:28:51;;;;;;;2.85;2.60;;;;;;;19.79;58.75;97536.84;10516734;28;20052;-54
2022/10/08 20:34:13;;;;;;;3.15;2.85;;;;;;;19.80;58.84;97549.28;10525453;28;20048;-54
2022/10/08 20:39:33;;;;;;;3.00;2.80;;;;;;;19.78;58.71;97551.47;10542238;28;20052;-53
2022/10/08 20:44:53;;;;;;;3.40;3.10;;;;;;;19.77;58.67;97563.38;10514797;28;20044;-55
2022/10/08 20:50:12;;;;;;;2.83;2.63;;;;;;;19.79;58.63;97571.19;10521972;28;20046;-54
2022/10/08 20:55:34;;;;;;;3.17;2.90;;;;;;;19.77;58.68;97576.91;10528924;28;20511;-54
2022/10/08 21:01:01;;;;;;;3.30;2.90;;;;;;;19.77;58.60;97586.94;10513561;28;20052;-54
2022/10/08 21:06:23;;;;;;;2.90;2.60;;;;;;;19.76;58.66;97591.53;10526312;28;20067;-54
2022/10/08 21:11:44;;;;;;;3.00;2.67;;;;;;;19.75;58.67;97595.34;10509229;28;20450;-53
2022/10/08 21:17:04;;;;;;;3.17;2.60;;;;;;;19.75;58.63;97595.34;10529154;28;20074;-54
2022/10/08 21:22:23;;;;;;;3.88;2.65;;;;;;;19.73;58.59;97601.03;10517117;28;20549;-53
2022/10/08 21:27:43;;;;;;;3.95;2.58;;;;;;;19.73;58.68;97617.25;10507575;28;20110;-54
2022/10/08 21:33:03;;;;;;;2.92;2.67;;;;;;;19.72;58.63;97620.28;10515962;28;20059;-54
2022/10/08 21:38:23;;;;;;;2.70;2.50;;;;;;;19.72;58.55;97626.50;10527538;28;20059;-54
2022/10/08 21:43:44;;;;;;;2.85;2.47;;;;;;;19.72;58.53;97623.00;10504896;28;20082;-54
2022/10/08 21:49:07;;;;;;;2.88;2.60;;;;;;;19.72;58.42;97628.41;10521690;28;20040;-53
2022/10/08 21:54:26;;;;;;;2.70;2.50;;;;;;;19.71;58.54;97632.16;10505015;28;20048;-53
2022/10/08 21:59:45;;;;;;;2.72;2.33;;;;;;;19.71;58.56;97634.88;10531556;28;20043;-54
2022/10/08 22:05:05;;;;;;;3.03;2.60;;;;;;;19.70;58.44;97636.00;10518221;28;20044;-54
2022/10/08 22:10:25;;;;;;;2.70;2.50;;;;;;;19.69;58.48;97639.78;10525761;28;20051;-53
2022/10/08 22:15:59;;;;;;;2.45;2.22;;;;;;;19.68;58.42;97636.28;10520528;28;20056;-53
2022/10/08 22:21:20;;;;;;;3.03;2.65;;;;;;;19.68;58.38;97654.38;10533770;28;20130;-54
2022/10/08 22:26:42;;;;;;;3.92;3.00;;;;;;;19.67;58.45;97642.00;10512228;28;20105;-54
2022/10/08 22:32:02;;;;;;;2.90;2.40;;;;;;;19.66;58.54;97648.50;10504932;28;20060;-54
2022/10/08 22:37:22;;;;;;;2.63;2.40;;;;;;;19.67;58.53;97652.81;10520892;28;20036;-54
2022/10/08 22:42:41;;;;;;;2.42;2.22;;;;;;;19.65;58.42;97655.00;10504530;28;20117;-54
2022/10/08 22:48:00;;;;;;;2.63;2.42;;;;;;;19.64;58.46;97669.63;10516215;28;20098;-53
2022/10/08 22:53:21;;;;;;;2.33;2.13;;;;;;;19.64;58.52;97667.75;10518182;28;20135;-54
2022/10/08 22:58:40;;;;;;;2.50;2.30;;;;;;;19.63;58.46;97658.00;10499485;28;20135;-54
2022/10/08 23:04:00;;;;;;;2.67;2.47;;;;;;;19.62;58.38;97656.44;10523697;28;20040;-54
2022/10/08 23:09:19;;;;;;;2.72;2.53;;;;;;;19.61;58.33;97657.53;10513306;28;20056;-54
2022/10/08 23:14:38;;;;;;;2.92;2.70;;;;;;;19.61;58.33;97665.63;10499312;28;20069;-53
2022/10/08 23:19:58;;;;;;;2.42;2.22;;;;;;;19.60;58.26;97674.84;10525846;28;20454;-54
2022/10/08 23:25:17;;;;;;;2.70;2.38;;;;;;;19.60;58.27;97674.03;10505740;28;20045;-55
2022/10/08 23:30:36;;;;;;;2.90;2.50;;;;;;;19.59;58.30;97678.66;10536722;28;20048;-53
2022/10/08 23:35:55;;;;;;;2.28;2.08;;;;;;;19.59;58.24;97683.25;10524256;28;20059;-54
2022/10/08 23:41:15;;;;;;;2.67;2.47;;;;;;;19.58;58.28;97693.25;10519709;28;20062;-54
2022/10/08 23:46:34;;;;;;;2.25;2.08;;;;;;;19.56;58.28;97696.28;10515350;28;20044;-54
2022/10/08 23:51:53;;;;;;;2.42;2.22;;;;;;;19.55;58.28;97697.38;10530263;28;20060;-54
2022/10/08 23:57:13;;;;;;;2.20;2.10;;;;;;;19.55;58.26;97705.47;10523439;28;20043;-54
